Nearby METAR Reports

 

NZWN - Wellington Intl, New Zealand
Distance from station: SSE 156km
Updated: Mon, 23-Apr-2018 8:30pm NZST
Clear
Clear
 Wind from NNE
Wind: NNE 15 km/h
Temperature: 13°C
Dew Point: 9°C
Humidity: 77%
Barometer: 1020 hPa
Clouds: Clear
Visibility: 10 km
2018/04/23 08:30 NZWN 230830Z AUTO 03008KT 9999 NCD 13/09 Q1020 NOSIG
NZAA - Auckland Intl Ar, New Zealand
Distance from station: N 334km
Updated: Mon, 23-Apr-2018 8:30pm NZST
Overcast
Overcast
 Wind from W
Wind: W 6 km/h
Temperature: 15°C
Dew Point: 10°C
Humidity: 72%
Barometer: 1023 hPa
Clouds: Overcast
Visibility: 10 km
Cloud details: Overcast 1433 m
2018/04/23 08:30 NZAA 230830Z AUTO 27003KT 9999 OVC047/// 15/10 Q1023 NOSIG
 
NZWP - Whenuapai (nz-Af, New Zealand
Distance from station: N 359km
Updated: Wed, 11-Apr-2018 2:00pm NZST
NOT Current
Mostly cloudy
Mostly cloudy
 Wind from SSW
Wind: SSW 9 km/h
Temperature: 12°C
Dew Point: 8°C
Humidity: 77%
Barometer: 1004 hPa
Clouds: Mostly cloudy
Cloud details: Partly cloudy 1067 m
Mostly cloudy 1463 m
2018/04/11 02:00 NZWP 110200Z 21005KT 170V230 25KM SCT035CB BKN048 12/08 Q1004 TEMPO 4000 SHRAGS SCT030CB
NZCH - Christchurch Int, New Zealand
Distance from station: SSW 412km
Updated: Mon, 23-Apr-2018 8:30pm NZST
Clear
Clear
 Wind from E
Wind: E 19 km/h
Temperature: 12°C
Dew Point: 11°C
Humidity: 94%
Barometer: 1016 hPa
Clouds: Clear
Visibility: 10 km
2018/04/23 08:30 NZCH 230830Z AUTO 09010KT 9999 NCD 12/11 Q1016 NOSIG

Metar display script from Saratoga-Weather.org